createdAt,value
2023-11-25T00:00:56.939Z,88.66
2023-11-25T00:03:23.740Z,84.54
2023-11-25T00:05:50.695Z,87.82
2023-11-25T00:08:17.594Z,92.54
2023-11-25T00:10:44.465Z,94.58
2023-11-25T00:13:11.051Z,98.14
2023-11-25T00:15:38.395Z,100.00
2023-11-25T00:18:05.012Z,100.00
2023-11-25T00:20:31.562Z,100.00
2023-11-25T00:22:58.098Z,100.00
2023-11-25T00:25:24.672Z,100.00
2023-11-25T00:27:51.453Z,100.00
2023-11-25T00:30:17.954Z,100.00
2023-11-25T00:32:44.590Z,100.00
2023-11-25T00:35:11.255Z,100.00
2023-11-25T00:37:38.533Z,100.00
2023-11-25T00:40:05.841Z,100.00
2023-11-25T00:42:32.457Z,100.00
2023-11-25T00:44:59.128Z,100.00
2023-11-25T00:47:25.773Z,100.00
2023-11-25T00:49:52.394Z,100.00
2023-11-25T00:52:18.988Z,100.00
2023-11-25T00:54:45.603Z,100.00
2023-11-25T00:57:12.201Z,100.00
2023-11-25T00:59:38.675Z,100.00
2023-11-25T01:02:05.266Z,100.00
2023-11-25T01:04:31.853Z,100.00
2023-11-25T01:06:58.408Z,100.00
2023-11-25T01:09:25.119Z,100.00
2023-11-25T01:11:51.622Z,100.00
2023-11-25T01:14:18.221Z,100.00
2023-11-25T01:16:44.837Z,100.00
2023-11-25T01:19:11.494Z,96.34
2023-11-25T01:21:38.122Z,91.46
2023-11-25T01:24:04.922Z,90.52
2023-11-25T01:26:31.461Z,83.42
2023-11-25T01:28:58.105Z,80.94
2023-11-25T01:31:24.691Z,85.78
2023-11-25T01:33:51.198Z,91.38
2023-11-25T01:36:17.791Z,93.11
2023-11-25T01:38:44.298Z,96.18
2023-11-25T01:41:11.262Z,96.81
2023-11-25T01:43:37.831Z,98.16
2023-11-25T01:46:05.829Z,97.80
2023-11-25T01:48:32.450Z,98.69
2023-11-25T01:51:00.441Z,98.16
2023-11-25T01:53:28.229Z,97.95
2023-11-25T01:55:55.369Z,98.19
2023-11-25T01:58:21.949Z,95.96
2023-11-25T02:00:49.968Z,95.38
2023-11-25T02:03:17.547Z,96.07
2023-11-25T02:05:44.784Z,95.72
2023-11-25T02:08:11.493Z,94.93
2023-11-25T02:10:38.000Z,95.29
2023-11-25T02:13:04.662Z,96.10
2023-11-25T02:15:31.387Z,96.39
2023-11-25T02:17:58.039Z,96.21
2023-11-25T02:20:40.648Z,96.16
2023-11-25T02:23:16.735Z,96.79
2023-11-25T02:25:50.835Z,94.56
2023-11-25T02:28:18.195Z,92.02
2023-11-25T02:30:44.730Z,91.58
2023-11-25T02:33:11.358Z,95.06
2023-11-25T02:35:37.921Z,94.32
2023-11-25T02:38:04.471Z,95.51
2023-11-25T02:40:31.012Z,97.70
2023-11-25T02:42:57.599Z,98.59
2023-11-25T02:45:24.871Z,98.79
2023-11-25T02:47:52.256Z,99.00
2023-11-25T02:50:19.535Z,98.44
2023-11-25T02:52:46.453Z,100.00
2023-11-25T02:55:13.209Z,99.26
2023-11-25T02:57:40.716Z,96.96
2023-11-25T03:00:08.103Z,95.79
2023-11-25T03:02:34.769Z,95.42
2023-11-25T03:05:01.375Z,93.79
2023-11-25T03:07:28.071Z,92.50
2023-11-25T03:09:54.649Z,88.76
2023-11-25T03:12:21.147Z,80.45
2023-11-25T03:14:47.629Z,78.10
2023-11-25T03:17:14.209Z,76.95
2023-11-25T03:19:41.049Z,72.42
2023-11-25T03:22:07.659Z,68.40
2023-11-25T03:24:34.194Z,68.12
2023-11-25T03:27:00.695Z,66.53
2023-11-25T03:29:27.250Z,65.47
2023-11-25T03:31:53.844Z,67.67
2023-11-25T03:34:20.438Z,70.36
2023-11-25T03:36:47.032Z,73.16
2023-11-25T03:39:13.717Z,75.40
2023-11-25T03:41:40.688Z,76.27
2023-11-25T03:44:07.293Z,77.16
2023-11-25T03:46:33.961Z,78.40
2023-11-25T03:49:00.530Z,76.26
2023-11-25T03:51:27.090Z,76.32
2023-11-25T03:53:53.613Z,74.75
2023-11-25T03:56:20.184Z,71.85
2023-11-25T03:58:46.782Z,68.96
2023-11-25T04:01:13.319Z,66.56
2023-11-25T04:03:39.908Z,65.09
2023-11-25T04:06:06.787Z,62.74
2023-11-25T04:08:33.343Z,60.76
2023-11-25T04:11:00.841Z,59.33
2023-11-25T04:13:27.318Z,53.62
2023-11-25T04:15:53.858Z,49.22
2023-11-25T04:18:20.456Z,48.50
2023-11-25T04:20:47.011Z,49.98
2023-11-25T04:23:14.011Z,51.37
2023-11-25T04:25:40.585Z,52.00
2023-11-25T04:28:07.253Z,52.73
2023-11-25T04:30:33.840Z,52.78
2023-11-25T04:33:00.650Z,52.15
2023-11-25T04:35:27.342Z,53.00
2023-11-25T04:37:53.944Z,49.96
2023-11-25T04:40:20.491Z,42.63
2023-11-25T04:42:47.094Z,38.05
2023-11-25T04:45:13.671Z,36.24
2023-11-25T04:47:40.344Z,36.44
2023-11-25T04:50:07.364Z,36.05
2023-11-25T04:52:33.926Z,36.11
2023-11-25T04:55:00.546Z,35.44
2023-11-25T04:57:27.130Z,33.90
2023-11-25T04:59:53.680Z,32.13
2023-11-25T05:02:20.355Z,35.01
2023-11-25T05:04:47.463Z,35.95
2023-11-25T05:07:14.022Z,37.65
2023-11-25T05:09:40.542Z,38.61
2023-11-25T05:12:07.517Z,39.35
2023-11-25T05:14:34.560Z,39.29
2023-11-25T05:17:01.278Z,39.44
2023-11-25T05:19:27.947Z,39.53
2023-11-25T05:21:54.501Z,39.88
2023-11-25T05:24:21.041Z,40.12
2023-11-25T05:26:47.604Z,39.94
2023-11-25T05:29:14.102Z,40.24
2023-11-25T05:31:40.609Z,39.84
2023-11-25T05:34:07.215Z,39.91
2023-11-25T05:36:33.900Z,39.54
2023-11-25T05:39:00.842Z,38.75
2023-11-25T05:41:28.284Z,38.70
2023-11-25T05:44:01.010Z,38.38
2023-11-25T05:46:27.620Z,38.22
2023-11-25T05:48:54.393Z,37.63
2023-11-25T05:51:21.632Z,37.23
2023-11-25T05:53:48.439Z,36.56
2023-11-25T05:56:14.996Z,36.18
2023-11-25T05:58:41.567Z,35.96
2023-11-25T06:01:08.216Z,35.67
2023-11-25T06:03:34.862Z,35.51
2023-11-25T06:06:01.815Z,35.02
2023-11-25T06:08:28.293Z,34.86
2023-11-25T06:10:57.305Z,34.98
2023-11-25T06:13:23.933Z,34.90
2023-11-25T06:15:50.517Z,34.46
2023-11-25T06:18:17.165Z,34.01
2023-11-25T06:20:43.807Z,34.39
2023-11-25T06:23:10.328Z,35.02
2023-11-25T06:25:36.923Z,35.25
2023-11-25T06:28:03.703Z,35.25
2023-11-25T06:30:30.296Z,35.74
2023-11-25T06:32:56.905Z,36.26
2023-11-25T06:35:23.419Z,36.13
2023-11-25T06:37:50.183Z,36.41
2023-11-25T06:40:16.875Z,36.39
2023-11-25T06:42:43.565Z,36.04
2023-11-25T06:45:10.319Z,36.13
2023-11-25T06:47:36.903Z,35.89
2023-11-25T06:50:03.685Z,35.52
2023-11-25T06:52:30.239Z,35.97
2023-11-25T06:54:56.884Z,36.06
2023-11-25T06:57:23.520Z,36.25
2023-11-25T06:59:50.072Z,36.42
2023-11-25T07:02:16.742Z,36.00
2023-11-25T07:04:43.462Z,36.01
2023-11-25T07:07:10.079Z,35.82
2023-11-25T07:09:36.770Z,35.27
2023-11-25T07:12:03.583Z,35.29
2023-11-25T07:14:30.144Z,35.20
2023-11-25T07:16:56.674Z,35.22
2023-11-25T07:19:23.265Z,34.59
2023-11-25T07:21:49.980Z,34.07
2023-11-25T07:24:16.503Z,33.91
2023-11-25T07:26:43.000Z,34.03
2023-11-25T07:29:09.593Z,33.87
2023-11-25T07:31:36.696Z,33.44
2023-11-25T07:34:03.963Z,33.52
2023-11-25T07:36:30.587Z,33.55
2023-11-25T07:38:57.153Z,32.83
2023-11-25T07:41:23.641Z,32.75
2023-11-25T07:43:50.180Z,32.51
2023-11-25T07:46:16.819Z,31.12
2023-11-25T07:48:43.358Z,29.71
2023-11-25T07:51:09.926Z,29.10
2023-11-25T07:53:36.475Z,28.45
2023-11-25T07:56:03.204Z,27.81
2023-11-25T07:58:29.861Z,27.79
2023-11-25T08:00:56.497Z,27.58
2023-11-25T08:03:23.179Z,27.29
2023-11-25T08:05:49.770Z,27.30
2023-11-25T08:08:16.341Z,26.84
2023-11-25T08:10:42.978Z,26.62
2023-11-25T08:13:09.618Z,25.99
2023-11-25T08:15:36.146Z,26.10
2023-11-25T08:18:02.948Z,25.58
2023-11-25T08:20:29.589Z,25.57
2023-11-25T08:22:56.210Z,25.33
2023-11-25T08:25:22.858Z,25.52
2023-11-25T08:27:51.005Z,25.71
2023-11-25T08:30:17.581Z,25.48
2023-11-25T08:32:44.955Z,24.93
2023-11-25T08:35:13.034Z,25.06
2023-11-25T08:37:40.682Z,24.72
2023-11-25T08:40:12.131Z,24.43
2023-11-25T08:42:38.634Z,24.33
2023-11-25T08:45:05.691Z,24.30
2023-11-25T08:47:32.326Z,23.90
2023-11-25T08:49:59.006Z,24.42
2023-11-25T08:52:25.631Z,24.45
2023-11-25T08:54:52.164Z,24.53
2023-11-25T08:57:18.748Z,24.55
2023-11-25T08:59:45.869Z,24.52
2023-11-25T09:02:12.554Z,23.67
2023-11-25T09:04:42.130Z,23.83
2023-11-25T09:07:08.733Z,24.01
2023-11-25T09:09:35.329Z,23.72
2023-11-25T09:12:02.016Z,23.85
2023-11-25T09:14:28.568Z,23.37
2023-11-25T09:16:55.151Z,23.71
2023-11-25T09:19:21.749Z,23.50
2023-11-25T09:21:48.314Z,23.14
2023-11-25T09:24:14.865Z,23.04
2023-11-25T09:26:41.563Z,23.00
2023-11-25T09:29:08.075Z,23.15
2023-11-25T09:31:34.700Z,23.93
2023-11-25T09:34:01.339Z,24.28
2023-11-25T09:36:27.828Z,24.10
2023-11-25T09:38:54.486Z,22.98
2023-11-25T09:41:21.120Z,24.02
2023-11-25T09:43:47.768Z,23.59
2023-11-25T09:46:15.001Z,23.69
2023-11-25T09:48:41.641Z,23.35
2023-11-25T09:51:08.933Z,23.38
2023-11-25T09:53:38.330Z,23.61
2023-11-25T09:56:07.282Z,23.61
2023-11-25T09:58:36.256Z,23.71
2023-11-25T10:01:04.020Z,23.54
2023-11-25T10:03:35.057Z,23.91
2023-11-25T10:06:02.758Z,23.59
2023-11-25T10:08:29.870Z,23.84
2023-11-25T10:11:07.334Z,23.37
2023-11-25T10:13:40.236Z,24.03
2023-11-25T10:16:08.003Z,23.87
2023-11-25T10:18:37.123Z,23.83
2023-11-25T10:21:05.220Z,23.51
2023-11-25T10:23:31.866Z,23.34
2023-11-25T10:25:58.680Z,23.29
2023-11-25T10:28:27.442Z,23.66
2023-11-25T10:30:57.378Z,23.50
2023-11-25T10:33:24.585Z,23.19
2023-11-25T10:35:52.117Z,23.51
2023-11-25T10:38:19.254Z,23.22
2023-11-25T10:40:46.704Z,23.69
2023-11-25T10:43:13.345Z,22.79
2023-11-25T10:45:40.016Z,23.46
2023-11-25T10:48:09.002Z,24.02
2023-11-25T10:50:35.663Z,23.97
2023-11-25T10:53:05.649Z,24.05
2023-11-25T10:55:33.558Z,23.63
2023-11-25T10:58:00.390Z,23.50
2023-11-25T11:00:30.235Z,23.45
2023-11-25T11:02:59.283Z,23.50
2023-11-25T11:05:42.540Z,23.65
2023-11-25T11:08:16.246Z,23.67
2023-11-25T11:10:59.699Z,23.43
2023-11-25T11:13:42.883Z,23.12
2023-11-25T11:16:27.907Z,23.51
2023-11-25T11:18:57.623Z,22.94
2023-11-25T11:21:33.022Z,22.87
2023-11-25T11:24:01.271Z,23.26
2023-11-25T11:26:46.629Z,23.56
2023-11-25T11:29:27.884Z,21.71
2023-11-25T11:32:07.510Z,22.60
2023-11-25T11:34:35.949Z,22.90
2023-11-25T11:37:03.657Z,23.03
2023-11-25T11:39:52.140Z,23.41
2023-11-25T11:42:25.980Z,23.44
2023-11-25T11:45:06.466Z,22.58
2023-11-25T11:47:33.311Z,23.18
2023-11-25T11:50:00.258Z,22.96
2023-11-25T11:52:27.042Z,22.61
2023-11-25T11:54:53.674Z,22.63
2023-11-25T11:57:20.342Z,22.63
2023-11-25T12:00:06.179Z,22.66
2023-11-25T12:02:33.833Z,22.65
2023-11-25T12:05:02.000Z,22.61
2023-11-25T12:07:29.007Z,22.99
2023-11-25T12:09:56.589Z,22.93
2023-11-25T12:12:23.732Z,22.65
2023-11-25T12:14:52.222Z,22.44
2023-11-25T12:17:20.601Z,22.64
2023-11-25T12:19:47.414Z,22.29
2023-11-25T12:22:15.729Z,21.75
2023-11-25T12:24:43.429Z,21.69
2023-11-25T12:27:14.073Z,22.03
2023-11-25T12:29:40.698Z,21.22
2023-11-25T12:32:07.693Z,20.40
2023-11-25T12:34:34.574Z,21.90
2023-11-25T12:37:01.551Z,22.88
2023-11-25T12:39:28.533Z,22.31
2023-11-25T12:41:55.289Z,22.36
2023-11-25T12:44:22.065Z,21.51
2023-11-25T12:47:05.227Z,21.69
2023-11-25T12:49:32.052Z,21.78
2023-11-25T12:51:58.633Z,21.63
2023-11-25T12:54:25.790Z,21.43
2023-11-25T12:56:54.235Z,21.90
2023-11-25T12:59:27.954Z,21.83
2023-11-25T13:02:02.933Z,22.12
2023-11-25T13:04:30.185Z,20.96
2023-11-25T13:06:56.895Z,21.15
2023-11-25T13:09:25.984Z,21.25
2023-11-25T13:11:52.598Z,21.26
2023-11-25T13:14:19.411Z,20.99
2023-11-25T13:16:46.194Z,20.85
2023-11-25T13:19:12.922Z,20.89
2023-11-25T13:21:39.835Z,20.89
2023-11-25T13:24:06.757Z,20.40
2023-11-25T13:26:33.768Z,20.87
2023-11-25T13:29:01.267Z,20.81
2023-11-25T13:31:28.519Z,20.40
2023-11-25T13:33:56.184Z,19.73
2023-11-25T13:36:23.737Z,19.82
2023-11-25T13:38:50.851Z,19.69
2023-11-25T13:41:17.512Z,20.08
2023-11-25T13:43:44.240Z,19.90
2023-11-25T13:46:10.901Z,19.77
2023-11-25T13:48:37.572Z,19.59
2023-11-25T13:51:04.216Z,18.44
2023-11-25T13:53:30.909Z,19.30
2023-11-25T13:55:57.587Z,19.63
2023-11-25T13:58:24.377Z,20.06
2023-11-25T14:00:51.182Z,19.23
2023-11-25T14:03:19.423Z,18.49
2023-11-25T14:05:46.179Z,18.05
2023-11-25T14:08:13.951Z,18.17
2023-11-25T14:10:40.709Z,17.69
2023-11-25T14:13:07.475Z,18.13
2023-11-25T14:15:34.358Z,18.62
2023-11-25T14:18:01.622Z,18.17
2023-11-25T14:20:29.844Z,17.91
2023-11-25T14:22:56.521Z,17.62
2023-11-25T14:25:23.678Z,17.60
2023-11-25T14:27:50.800Z,18.29
2023-11-25T14:30:18.135Z,18.32
2023-11-25T14:32:45.720Z,17.96
2023-11-25T14:35:12.353Z,17.89
2023-11-25T14:37:39.809Z,18.15
2023-11-25T14:40:07.609Z,18.24
2023-11-25T14:42:35.291Z,17.80
2023-11-25T14:45:02.223Z,18.29
2023-11-25T14:47:29.134Z,18.92
2023-11-25T14:49:56.045Z,18.65
2023-11-25T14:52:22.807Z,18.69
2023-11-25T14:54:49.681Z,18.65
2023-11-25T14:57:16.476Z,18.57
2023-11-25T14:59:43.444Z,18.56
2023-11-25T15:02:10.522Z,18.26
2023-11-25T15:04:37.288Z,18.52
2023-11-25T15:07:04.126Z,18.34
2023-11-25T15:09:30.788Z,18.33
2023-11-25T15:11:57.577Z,18.97
2023-11-25T15:14:24.391Z,18.38
2023-11-25T15:16:52.360Z,17.86
2023-11-25T15:19:19.477Z,18.59
2023-11-25T15:21:46.506Z,18.84
2023-11-25T15:24:13.413Z,19.25
2023-11-25T15:26:43.745Z,19.65
2023-11-25T15:29:11.597Z,19.89
2023-11-25T15:34:05.216Z,20.03
2023-11-25T15:36:31.908Z,19.86
2023-11-25T15:38:58.755Z,20.78
2023-11-25T15:41:25.474Z,20.62
2023-11-25T15:43:52.332Z,20.62
2023-11-25T15:46:19.102Z,21.12
2023-11-25T15:48:45.791Z,22.38
2023-11-25T15:51:12.601Z,22.12
2023-11-25T15:53:39.289Z,23.16
2023-11-25T15:56:07.811Z,24.00
2023-11-25T15:58:34.835Z,24.40
2023-11-25T16:01:01.632Z,23.86
2023-11-25T16:03:28.419Z,23.07
2023-11-25T16:05:55.110Z,22.24
2023-11-25T16:08:21.855Z,22.63
2023-11-25T16:10:48.560Z,22.61
2023-11-25T16:13:15.307Z,22.74
2023-11-25T16:15:41.988Z,22.18
2023-11-25T16:18:08.731Z,22.11
2023-11-25T16:20:35.390Z,22.01
2023-11-25T16:23:02.241Z,21.64
2023-11-25T16:25:28.970Z,22.54
2023-11-25T16:27:55.900Z,22.63
2023-11-25T16:30:22.651Z,22.98
2023-11-25T16:32:50.007Z,22.97
2023-11-25T16:35:17.161Z,23.01
2023-11-25T16:37:44.963Z,23.18
2023-11-25T16:40:13.038Z,23.23
2023-11-25T16:42:39.785Z,23.66
2023-11-25T16:45:07.122Z,23.70
2023-11-25T16:47:34.711Z,23.94
2023-11-25T16:50:03.143Z,24.20
2023-11-25T16:52:30.136Z,24.11
2023-11-25T16:54:56.942Z,24.10
2023-11-25T16:57:23.840Z,24.00
2023-11-25T16:59:50.584Z,24.12
2023-11-25T17:02:17.587Z,24.36
2023-11-25T17:04:44.614Z,24.74
2023-11-25T17:07:11.441Z,24.52
2023-11-25T17:09:38.091Z,24.59
2023-11-25T17:12:05.293Z,24.15
2023-11-25T17:14:31.904Z,24.25
2023-11-25T17:16:58.836Z,25.14
2023-11-25T17:19:25.622Z,25.25
2023-11-25T17:21:52.395Z,26.23
2023-11-25T17:24:19.108Z,26.47
2023-11-25T17:26:45.699Z,26.38
2023-11-25T17:29:12.419Z,27.23
2023-11-25T17:31:39.413Z,27.63
2023-11-25T17:34:06.215Z,28.44
2023-11-25T17:36:32.856Z,27.96
2023-11-25T17:39:00.345Z,28.62
2023-11-25T17:41:26.958Z,29.89
2023-11-25T17:43:53.906Z,30.23
2023-11-25T17:46:20.924Z,30.69
2023-11-25T17:48:47.630Z,31.06
2023-11-25T17:51:14.404Z,30.79
2023-11-25T17:53:41.214Z,30.63
2023-11-25T17:56:08.701Z,30.97
2023-11-25T17:58:35.499Z,31.53
2023-11-25T18:01:02.232Z,31.54
2023-11-25T18:03:28.865Z,32.91
2023-11-25T18:05:55.505Z,33.06
2023-11-25T18:08:22.199Z,33.21
2023-11-25T18:10:49.041Z,31.81
2023-11-25T18:13:15.930Z,31.38
2023-11-25T18:15:42.596Z,31.30
2023-11-25T18:18:09.436Z,31.27
2023-11-25T18:20:36.124Z,32.16
2023-11-25T18:23:02.780Z,31.81
2023-11-25T18:25:29.518Z,32.02
2023-11-25T18:27:56.336Z,32.63
2023-11-25T18:30:23.268Z,32.64
2023-11-25T18:32:50.074Z,32.74
2023-11-25T18:35:16.976Z,33.07
2023-11-25T18:37:43.698Z,33.03
2023-11-25T18:40:10.714Z,32.82
2023-11-25T18:42:37.404Z,33.91
2023-11-25T18:45:05.119Z,35.17
2023-11-25T18:47:31.923Z,35.42
2023-11-25T18:49:58.961Z,36.51
2023-11-25T18:52:25.739Z,37.74
2023-11-25T18:54:52.414Z,37.88
2023-11-25T18:57:19.107Z,37.96
2023-11-25T18:59:46.791Z,37.74
2023-11-25T19:02:13.624Z,38.16
2023-11-25T19:04:41.319Z,38.37
2023-11-25T19:07:08.212Z,38.48
2023-11-25T19:09:34.968Z,38.85
2023-11-25T19:12:01.672Z,39.23
2023-11-25T19:14:28.381Z,39.55
2023-11-25T19:16:55.225Z,39.67
2023-11-25T19:19:21.932Z,39.92
2023-11-25T19:21:48.816Z,39.63
2023-11-25T19:24:15.665Z,39.42
2023-11-25T19:26:42.397Z,39.31
2023-11-25T19:29:09.364Z,39.41
2023-11-25T19:31:37.648Z,39.43
2023-11-25T19:34:04.355Z,39.19
2023-11-25T19:36:34.264Z,38.82
2023-11-25T19:39:00.951Z,38.89
2023-11-25T19:41:27.751Z,39.27
2023-11-25T19:43:54.571Z,39.60
2023-11-25T19:46:23.938Z,40.90
2023-11-25T19:48:51.501Z,40.41
2023-11-25T19:51:20.208Z,39.27
2023-11-25T19:53:50.797Z,39.43
2023-11-25T19:56:20.176Z,38.64
2023-11-25T19:58:47.145Z,40.13
2023-11-25T20:01:16.616Z,41.13
2023-11-25T20:03:46.302Z,41.76
2023-11-25T20:06:14.641Z,42.08
2023-11-25T20:08:41.615Z,42.35
2023-11-25T20:11:09.436Z,43.01
2023-11-25T20:13:36.611Z,43.76
2023-11-25T20:16:03.465Z,44.64
2023-11-25T20:18:31.280Z,44.99
2023-11-25T20:20:57.940Z,44.49
2023-11-25T20:23:25.103Z,43.84
2023-11-25T20:25:53.102Z,44.34
2023-11-25T20:28:19.916Z,44.56
2023-11-25T20:30:47.654Z,45.99
2023-11-25T20:33:14.844Z,46.81
2023-11-25T20:35:42.955Z,47.00
2023-11-25T20:38:11.495Z,46.48
2023-11-25T20:40:40.140Z,46.52
2023-11-25T20:43:07.648Z,46.56
2023-11-25T20:45:38.354Z,45.56
2023-11-25T20:48:05.812Z,44.66
2023-11-25T20:50:32.738Z,44.47
2023-11-25T20:52:59.522Z,44.25
2023-11-25T20:55:26.252Z,43.42
2023-11-25T20:57:52.949Z,43.57
2023-11-25T21:00:19.884Z,44.44
2023-11-25T21:02:46.614Z,45.22
2023-11-25T21:05:13.570Z,45.10
2023-11-25T21:07:43.334Z,45.00
2023-11-25T21:10:10.929Z,45.33
2023-11-25T21:12:37.632Z,43.92
2023-11-25T21:15:04.649Z,45.06
2023-11-25T21:17:31.423Z,44.91
2023-11-25T21:19:58.330Z,45.43
2023-11-25T21:22:25.205Z,46.55
2023-11-25T21:24:51.893Z,46.49
2023-11-25T21:27:18.713Z,46.50
2023-11-25T21:29:45.378Z,47.23
2023-11-25T21:32:12.236Z,48.19
2023-11-25T21:34:39.044Z,45.65
2023-11-25T21:37:05.910Z,46.47
2023-11-25T21:39:32.772Z,47.80
2023-11-25T21:41:59.548Z,48.62
2023-11-25T21:44:26.388Z,48.78
2023-11-25T21:46:53.465Z,49.73
2023-11-25T21:49:20.089Z,49.60
2023-11-25T21:51:46.733Z,49.25
2023-11-25T21:54:13.351Z,50.10
2023-11-25T21:56:40.042Z,50.32
2023-11-25T21:59:06.693Z,50.22
2023-11-25T22:01:33.479Z,50.44
2023-11-25T22:04:00.288Z,50.00
2023-11-25T22:06:27.369Z,50.48
2023-11-25T22:08:54.644Z,50.35
2023-11-25T22:11:21.337Z,49.07
2023-11-25T22:13:48.473Z,48.54
2023-11-25T22:16:15.036Z,50.05
2023-11-25T22:18:41.660Z,50.67
2023-11-25T22:21:08.308Z,50.23
2023-11-25T22:23:34.837Z,51.89
2023-11-25T22:26:01.418Z,52.52
2023-11-25T22:28:27.941Z,53.57
2023-11-25T22:30:54.535Z,54.07
2023-11-25T22:33:21.092Z,54.11
2023-11-25T22:35:53.458Z,54.80
2023-11-25T22:38:25.142Z,55.03
2023-11-25T22:40:51.687Z,54.66
2023-11-25T22:43:18.298Z,54.94
2023-11-25T22:45:44.875Z,54.82
2023-11-25T22:48:11.404Z,54.38
2023-11-25T22:50:37.935Z,52.54
2023-11-25T22:53:04.607Z,52.77
2023-11-25T22:55:31.310Z,52.73
2023-11-25T22:57:57.810Z,52.12
2023-11-25T23:00:24.330Z,52.28
2023-11-25T23:02:50.965Z,52.45
2023-11-25T23:05:17.574Z,51.73
2023-11-25T23:07:44.156Z,51.96
2023-11-25T23:10:10.711Z,51.76
2023-11-25T23:12:37.259Z,51.58
2023-11-25T23:15:04.102Z,51.53
2023-11-25T23:17:30.794Z,51.85
2023-11-25T23:19:57.477Z,53.03
2023-11-25T23:22:23.997Z,53.38
2023-11-25T23:24:50.548Z,54.48
2023-11-25T23:27:17.105Z,54.95
2023-11-25T23:29:43.674Z,55.12
2023-11-25T23:32:10.406Z,56.13
2023-11-25T23:34:37.601Z,57.07
2023-11-25T23:37:04.188Z,57.34
2023-11-25T23:39:30.745Z,57.90
2023-11-25T23:41:57.222Z,57.93
2023-11-25T23:44:23.805Z,58.18
2023-11-25T23:46:50.401Z,58.72
2023-11-25T23:49:17.013Z,59.95
2023-11-25T23:51:43.563Z,60.35
2023-11-25T23:54:10.202Z,60.41
2023-11-25T23:56:36.770Z,61.16
2023-11-25T23:59:03.280Z,61.64
